createdAt,value
2023-02-21T00:00:01.927Z,99579.22
2023-02-21T00:02:51.132Z,99579.22
2023-02-21T00:05:38.640Z,99590.14
2023-02-21T00:08:26.023Z,99595.55
2023-02-21T00:11:14.089Z,99581.14
2023-02-21T00:14:01.767Z,99582.46
2023-02-21T00:16:49.556Z,99584.17
2023-02-21T00:19:36.656Z,99586.78
2023-02-21T00:22:24.482Z,99575.05
2023-02-21T00:25:12.377Z,99579.98
2023-02-21T00:28:00.118Z,99583.42
2023-02-21T00:30:47.946Z,99583.42
2023-02-21T00:33:34.881Z,99580.58
2023-02-21T00:36:22.379Z,99580.06
2023-02-21T00:39:10.005Z,99582.50
2023-02-21T00:41:57.884Z,99581.66
2023-02-21T00:44:45.371Z,99581.66
2023-02-21T00:47:32.254Z,99592.45
2023-02-21T00:50:19.662Z,99589.60
2023-02-21T00:53:07.262Z,99589.22
2023-02-21T00:55:54.562Z,99584.78
2023-02-21T00:58:41.890Z,99591.28
2023-02-21T01:01:29.719Z,99588.28
2023-02-21T01:04:19.916Z,99585.38
2023-02-21T01:07:09.338Z,99588.16
2023-02-21T01:09:56.880Z,99574.70
2023-02-21T01:12:44.657Z,99581.92
2023-02-21T01:15:33.662Z,99577.22
2023-02-21T01:18:20.985Z,99568.84
2023-02-21T01:21:08.857Z,99573.05
2023-02-21T01:23:56.805Z,99568.09
2023-02-21T01:26:44.610Z,99564.41
2023-02-21T01:29:32.229Z,99572.41
2023-02-21T01:32:19.999Z,99572.41
2023-02-21T01:35:07.646Z,99559.13
2023-02-21T01:37:55.372Z,99558.05
2023-02-21T01:40:43.342Z,99563.20
2023-02-21T01:43:36.056Z,99556.85
2023-02-21T01:46:24.442Z,99584.56
2023-02-21T01:49:13.926Z,99567.76
2023-02-21T01:52:03.205Z,99565.50
2023-02-21T01:54:53.739Z,99574.86
2023-02-21T01:57:42.010Z,99570.75
2023-02-21T02:00:31.815Z,99573.29
2023-02-21T02:03:24.924Z,99575.69
2023-02-21T02:06:15.537Z,99575.69
2023-02-21T02:09:03.473Z,99577.00
2023-02-21T02:12:12.360Z,99574.47
2023-02-21T02:14:50.644Z,99573.52
2023-02-21T02:17:26.262Z,99554.21
2023-02-21T02:20:17.325Z,99555.05
2023-02-21T02:22:59.105Z,99549.80
2023-02-21T02:25:35.342Z,99560.33
2023-02-21T02:28:16.715Z,99545.58
2023-02-21T02:31:07.250Z,99543.42
2023-02-21T02:33:42.954Z,99545.69
2023-02-21T02:36:18.408Z,99554.94
2023-02-21T02:39:12.826Z,99548.81
2023-02-21T02:41:51.329Z,99541.50
2023-02-21T02:44:30.039Z,99546.30
2023-02-21T02:47:03.059Z,99542.36
2023-02-21T02:49:35.959Z,99550.01
2023-02-21T02:52:09.681Z,99538.98
2023-02-21T02:54:39.520Z,99553.14
2023-02-21T02:57:13.275Z,99547.73
2023-02-21T02:59:46.353Z,99551.34
2023-02-21T03:02:38.416Z,99540.66
2023-02-21T03:05:26.299Z,99547.50
2023-02-21T03:08:04.831Z,99544.05
2023-02-21T03:10:52.562Z,99546.30
2023-02-21T03:13:37.429Z,99548.58
2023-02-21T03:16:28.243Z,99543.66
2023-02-21T03:19:17.683Z,99530.24
2023-02-21T03:21:53.624Z,99526.16
2023-02-21T03:24:25.930Z,99533.61
2023-02-21T03:26:58.979Z,99544.37
2023-02-21T03:29:49.438Z,99536.11
2023-02-21T03:32:24.382Z,99544.16
2023-02-21T03:34:54.585Z,99537.77
2023-02-21T03:37:33.271Z,99531.56
2023-02-21T03:40:04.768Z,99530.22
2023-02-21T03:42:35.307Z,99538.39
2023-02-21T03:45:07.063Z,99535.28
2023-02-21T03:47:37.063Z,99532.28
2023-02-21T03:50:07.470Z,99538.03
2023-02-21T03:52:38.347Z,99538.03
2023-02-21T03:55:09.691Z,99547.75
2023-02-21T03:57:39.242Z,99541.52
2023-02-21T04:00:11.614Z,99548.83
2023-02-21T04:02:43.549Z,99532.28
2023-02-21T04:05:15.864Z,99551.95
2023-02-21T04:07:46.568Z,99534.32
2023-02-21T04:10:15.483Z,99541.13
2023-02-21T04:12:46.688Z,99549.89
2023-02-21T04:15:16.452Z,99534.41
2023-02-21T04:17:46.519Z,99537.53
2023-02-21T04:20:16.699Z,99528.45
2023-02-21T04:23:01.500Z,99533.70
2023-02-21T04:25:19.821Z,99528.89
2023-02-21T04:27:51.465Z,99545.94
2023-02-21T04:30:21.373Z,99543.30
2023-02-21T04:32:51.294Z,99548.09
2023-02-21T04:35:20.962Z,99542.45
2023-02-21T04:37:50.744Z,99525.54
2023-02-21T04:40:20.786Z,99558.17
2023-02-21T04:42:50.551Z,99548.45
2023-02-21T04:45:20.394Z,99551.33
2023-02-21T04:47:50.297Z,99551.30
2023-02-21T04:50:20.252Z,99545.22
2023-02-21T04:52:50.322Z,99539.45
2023-02-21T04:55:19.850Z,99534.78
2023-02-21T04:57:50.277Z,99543.89
2023-02-21T05:00:20.089Z,99541.98
2023-02-21T05:02:50.241Z,99542.22
2023-02-21T05:05:19.857Z,99548.58
2023-02-21T05:07:49.739Z,99546.05
2023-02-21T05:10:20.099Z,99547.62
2023-02-21T05:12:49.860Z,99544.27
2023-02-21T05:15:19.728Z,99544.27
2023-02-21T05:17:49.790Z,99548.34
2023-02-21T05:20:19.776Z,99549.41
2023-02-21T05:22:50.284Z,99547.62
2023-02-21T05:25:24.414Z,99548.70
2023-02-21T05:27:55.218Z,99541.39
2023-02-21T05:30:25.384Z,99540.42
2023-02-21T05:32:55.553Z,99532.16
2023-02-21T05:35:26.853Z,99532.16
2023-02-21T05:37:56.914Z,99539.33
2023-02-21T05:40:26.760Z,99550.99
2023-02-21T05:42:56.590Z,99541.13
2023-02-21T05:45:26.482Z,99540.67
2023-02-21T05:47:57.887Z,99544.01
2023-02-21T05:50:27.819Z,99539.09
2023-02-21T05:53:01.746Z,99545.81
2023-02-21T05:55:31.540Z,99545.95
2023-02-21T05:58:02.775Z,99544.13
2023-02-21T06:00:33.101Z,99555.64
2023-02-21T06:03:04.917Z,99555.64
2023-02-21T06:05:34.244Z,99548.09
2023-02-21T06:08:04.090Z,99558.41
2023-02-21T06:10:35.447Z,99569.44
2023-02-21T06:13:05.225Z,99562.01
2023-02-21T06:15:35.420Z,99571.36
2023-02-21T06:18:06.301Z,99564.17
2023-02-21T06:20:36.177Z,99567.05
2023-02-21T06:23:06.252Z,99575.92
2023-02-21T06:25:36.222Z,99573.17
2023-02-21T06:28:06.570Z,99573.17
2023-02-21T06:30:36.454Z,99582.77
2023-02-21T06:33:06.810Z,99583.59
2023-02-21T06:35:36.656Z,99588.87
2023-02-21T06:38:07.110Z,99594.52
2023-02-21T06:40:36.868Z,99597.64
2023-02-21T06:43:06.675Z,99594.41
2023-02-21T06:45:36.511Z,99598.48
2023-02-21T06:48:07.498Z,99612.64
2023-02-21T06:50:37.498Z,99607.46
2023-02-21T06:53:07.147Z,99609.39
2023-02-21T06:55:36.915Z,99614.55
2023-02-21T06:58:06.815Z,99615.28
2023-02-21T07:00:36.577Z,99617.08
2023-02-21T07:03:07.277Z,99620.29
2023-02-21T07:05:38.655Z,99621.26
2023-02-21T07:08:08.534Z,99623.41
2023-02-21T07:10:38.750Z,99623.41
2023-02-21T07:13:08.668Z,99622.94
2023-02-21T07:15:38.541Z,99625.22
2023-02-21T07:18:08.314Z,99622.34
2023-02-21T07:23:07.223Z,99627.23
2023-02-21T07:25:38.830Z,99643.20
2023-02-21T07:28:08.879Z,99636.11
2023-02-21T07:30:38.720Z,99640.20
2023-02-21T07:33:08.573Z,99646.47
2023-02-21T07:35:38.647Z,99654.03
2023-02-21T07:38:08.420Z,99657.75
2023-02-21T07:40:38.226Z,99645.63
2023-02-21T07:43:07.696Z,99660.63
2023-02-21T07:45:37.502Z,99657.23
2023-02-21T07:48:07.268Z,99659.78
2023-02-21T07:50:37.088Z,99655.47
2023-02-21T07:53:06.854Z,99666.39
2023-02-21T07:55:36.889Z,99674.55
2023-02-21T07:58:07.461Z,99670.93
2023-02-21T08:00:40.241Z,99670.81
2023-02-21T08:03:10.634Z,99685.69
2023-02-21T08:05:40.967Z,99675.13
2023-02-21T08:08:11.385Z,99687.25
2023-02-21T08:10:41.078Z,99678.25
2023-02-21T08:13:10.575Z,99678.86
2023-02-21T08:15:40.399Z,99685.34
2023-02-21T08:18:12.916Z,99684.14
2023-02-21T08:20:42.707Z,99682.34
2023-02-21T08:23:12.305Z,99691.94
2023-02-21T08:25:42.404Z,99684.73
2023-02-21T08:28:12.716Z,99697.58
2023-02-21T08:30:42.786Z,99692.17
2023-02-21T08:33:12.572Z,99694.83
2023-02-21T08:35:42.386Z,99692.78
2023-02-21T08:38:11.910Z,99696.27
2023-02-21T08:40:41.879Z,99690.98
2023-02-21T08:43:11.790Z,99713.80
2023-02-21T08:45:41.553Z,99703.08
2023-02-21T08:48:11.870Z,99701.77
2023-02-21T08:50:41.545Z,99701.77
2023-02-21T08:53:15.221Z,99697.32
2023-02-21T08:55:44.604Z,99693.84
2023-02-21T08:58:14.681Z,99701.77
2023-02-21T09:00:44.223Z,99704.89
2023-02-21T09:03:14.725Z,99704.20
2023-02-21T09:05:44.520Z,99699.27
2023-02-21T09:08:15.185Z,99705.61
2023-02-21T09:10:46.356Z,99710.05
2023-02-21T09:13:15.183Z,99681.73
2023-02-21T09:15:44.941Z,99707.65
2023-02-21T09:18:14.873Z,99701.89
2023-02-21T09:20:45.646Z,99717.26
2023-02-21T09:23:17.067Z,99708.70
2023-02-21T09:25:47.431Z,99703.64
2023-02-21T09:28:17.578Z,99709.00
2023-02-21T09:30:48.190Z,99713.50
2023-02-21T09:33:18.313Z,99713.11
2023-02-21T09:35:47.901Z,99717.34
2023-02-21T09:38:17.426Z,99720.58
2023-02-21T09:40:53.122Z,99718.97
2023-02-21T09:43:31.510Z,99718.82
2023-02-21T09:46:04.399Z,99715.72
2023-02-21T09:48:34.564Z,99714.04
2023-02-21T09:51:07.888Z,99716.30
2023-02-21T09:53:40.659Z,99710.19
2023-02-21T09:56:28.288Z,99707.20
2023-02-21T09:58:58.984Z,99708.89
2023-02-21T10:01:32.857Z,99716.76
2023-02-21T10:04:25.819Z,99722.85
2023-02-21T10:07:21.261Z,99724.66
2023-02-21T10:10:03.193Z,99724.66
2023-02-21T10:12:54.362Z,99729.30
2023-02-21T10:15:46.731Z,99731.94
2023-02-21T10:18:45.217Z,99736.89
2023-02-21T10:21:32.458Z,99743.79
2023-02-21T10:24:06.143Z,99721.34
2023-02-21T10:26:40.236Z,99753.81
2023-02-21T10:29:27.978Z,99753.81
2023-02-21T10:32:02.390Z,99756.66
2023-02-21T10:34:35.316Z,99763.42
2023-02-21T10:37:26.945Z,99770.34
2023-02-21T10:39:59.773Z,99771.52
2023-02-21T10:42:32.884Z,99770.72
2023-02-21T10:45:05.724Z,99769.98
2023-02-21T10:47:41.103Z,99773.53
2023-02-21T10:50:12.189Z,99778.82
2023-02-21T10:52:51.148Z,99784.47
2023-02-21T10:55:32.899Z,99776.78
2023-02-21T10:57:59.856Z,99776.91
2023-02-21T11:00:38.243Z,99776.91
2023-02-21T11:03:23.138Z,99769.25
2023-02-21T11:05:56.888Z,99775.70
2023-02-21T11:08:38.664Z,99780.05
2023-02-21T11:11:09.527Z,99779.84
2023-02-21T11:13:38.558Z,99786.20
2023-02-21T11:16:24.743Z,99785.06
2023-02-21T11:19:08.556Z,99797.76
2023-02-21T11:21:38.724Z,99785.30
2023-02-21T11:24:10.854Z,99772.34
2023-02-21T11:26:52.432Z,99772.64
2023-02-21T11:29:25.824Z,99764.44
2023-02-21T11:31:56.607Z,99769.34
2023-02-21T11:34:29.173Z,99767.17
2023-02-21T11:37:02.021Z,99768.86
2023-02-21T11:39:35.761Z,99769.36
2023-02-21T11:42:09.733Z,99767.44
2023-02-21T11:44:43.187Z,99772.23
2023-02-21T11:47:18.846Z,99776.78
2023-02-21T11:50:06.804Z,99765.96
2023-02-21T11:52:39.672Z,99771.67
2023-02-21T11:55:21.755Z,99784.20
2023-02-21T11:57:54.743Z,99785.98
2023-02-21T12:00:45.455Z,99791.73
2023-02-21T12:03:46.062Z,99787.27
2023-02-21T12:06:21.700Z,99795.59
2023-02-21T12:09:00.858Z,99793.17
2023-02-21T12:11:49.167Z,99792.55
2023-02-21T12:14:30.392Z,99793.67
2023-02-21T12:17:18.150Z,99783.89
2023-02-21T12:20:10.363Z,99784.20
2023-02-21T12:22:57.594Z,99774.63
2023-02-21T12:25:39.844Z,99779.17
2023-02-21T12:28:33.471Z,99801.95
2023-02-21T12:31:26.379Z,99800.66
2023-02-21T12:34:22.924Z,99800.66
2023-02-21T12:37:07.781Z,99789.98
2023-02-21T12:39:55.585Z,99789.98
2023-02-21T12:42:29.197Z,99779.81
2023-02-21T12:45:18.732Z,99787.77
2023-02-21T12:48:03.288Z,99784.19
2023-02-21T12:50:39.249Z,99800.47
2023-02-21T12:53:35.825Z,99789.41
2023-02-21T12:56:12.930Z,99796.39
2023-02-21T12:58:51.785Z,99789.45
2023-02-21T13:01:36.748Z,99792.32
2023-02-21T13:04:43.254Z,99788.80
2023-02-21T13:07:17.419Z,99794.71
2023-02-21T13:09:53.118Z,99787.37
2023-02-21T13:12:28.735Z,99783.53
2023-02-21T13:15:04.510Z,99775.23
2023-02-21T13:17:34.350Z,99786.01
2023-02-21T13:20:07.152Z,99781.50
2023-02-21T13:23:31.814Z,99781.50
2023-02-21T13:26:38.851Z,99784.17
2023-02-21T13:29:24.676Z,99778.52
2023-02-21T13:32:09.714Z,99780.00
2023-02-21T13:34:45.689Z,99780.00
2023-02-21T13:37:21.376Z,99790.03
2023-02-21T13:39:58.455Z,99782.98
2023-02-21T13:42:30.363Z,99778.98
2023-02-21T13:45:22.874Z,99778.10
2023-02-21T13:48:04.473Z,99764.47
2023-02-21T13:50:41.810Z,99774.39
2023-02-21T13:53:20.203Z,99775.42
2023-02-21T13:56:11.047Z,99773.58
2023-02-21T13:58:46.386Z,99784.28
2023-02-21T14:01:30.982Z,99784.28
2023-02-21T14:04:01.518Z,99774.68
2023-02-21T14:06:37.103Z,99795.27
2023-02-21T14:09:09.904Z,99777.95
2023-02-21T14:11:42.797Z,99783.31
2023-02-21T14:14:27.668Z,99783.31
2023-02-21T14:17:06.253Z,99791.16
2023-02-21T14:19:45.151Z,99788.41
2023-02-21T14:22:20.674Z,99791.53
2023-02-21T14:24:56.531Z,99791.53
2023-02-21T14:27:32.647Z,99796.04
2023-02-21T14:30:05.684Z,99790.05
2023-02-21T14:32:55.338Z,99784.89
2023-02-21T14:35:36.668Z,99779.69
2023-02-21T14:38:10.766Z,99782.34
2023-02-21T14:40:46.481Z,99797.23
2023-02-21T14:43:33.950Z,99790.32
2023-02-21T14:46:15.350Z,99798.88
2023-02-21T14:48:50.719Z,99806.38
2023-02-21T14:51:38.153Z,99812.55
2023-02-21T14:54:21.478Z,99810.78
2023-02-21T14:57:28.897Z,99810.16
2023-02-21T15:00:09.336Z,99817.23
2023-02-21T15:02:59.833Z,99806.02
2023-02-21T15:05:39.072Z,99808.70
2023-02-21T15:08:18.068Z,99813.17
2023-02-21T15:10:50.007Z,99812.07
2023-02-21T15:13:34.601Z,99800.93
2023-02-21T15:16:07.590Z,99800.93
2023-02-21T15:18:40.694Z,99817.77
2023-02-21T15:21:15.037Z,99822.66
2023-02-21T15:23:47.608Z,99831.03
2023-02-21T15:26:23.226Z,99823.03
2023-02-21T15:29:14.487Z,99833.05
2023-02-21T15:31:56.565Z,99829.80
2023-02-21T15:34:33.415Z,99832.53
2023-02-21T15:37:27.441Z,99841.73
2023-02-21T15:40:07.983Z,99842.14
2023-02-21T15:42:39.642Z,99841.50
2023-02-21T15:45:12.401Z,99840.66
2023-02-21T15:47:42.709Z,99834.44
2023-02-21T15:50:33.460Z,99844.86
2023-02-21T15:53:17.568Z,99849.31
2023-02-21T15:55:49.169Z,99846.31
2023-02-21T15:58:29.195Z,99846.33
2023-02-21T16:01:11.190Z,99857.88
2023-02-21T16:03:43.208Z,99861.61
2023-02-21T16:06:16.138Z,99869.30
2023-02-21T16:08:57.199Z,99869.21
2023-02-21T16:11:29.705Z,99872.81
2023-02-21T16:13:59.784Z,99879.64
2023-02-21T16:16:32.619Z,99881.70
2023-02-21T16:19:02.963Z,99890.48
2023-02-21T16:21:32.839Z,99890.48
2023-02-21T16:24:17.594Z,99896.33
2023-02-21T16:26:50.753Z,99896.92
2023-02-21T16:29:20.464Z,99902.05
2023-02-21T16:31:51.174Z,99905.75
2023-02-21T16:34:20.809Z,99907.23
2023-02-21T16:36:52.254Z,99906.91
2023-02-21T16:39:21.293Z,99911.34
2023-02-21T16:41:52.153Z,99915.00
2023-02-21T16:44:21.968Z,99923.52
2023-02-21T16:46:55.062Z,99922.98
2023-02-21T16:49:24.939Z,99928.04
2023-02-21T16:51:55.069Z,99928.56
2023-02-21T16:54:24.806Z,99940.16
2023-02-21T16:56:55.117Z,99938.36
2023-02-21T16:59:26.356Z,99947.45
2023-02-21T17:01:56.211Z,99946.08
2023-02-21T17:04:27.532Z,99957.48
2023-02-21T17:07:00.956Z,99957.48
2023-02-21T17:09:33.446Z,99968.27
2023-02-21T17:12:03.402Z,99972.84
2023-02-21T17:14:34.862Z,99983.98
2023-02-21T17:17:04.694Z,99973.42
2023-02-21T17:19:34.782Z,99982.72
2023-02-21T17:22:04.689Z,99991.53
2023-02-21T17:24:34.500Z,100000.20
2023-02-21T17:27:04.413Z,99996.49
2023-02-21T17:29:34.240Z,99996.49
2023-02-21T17:32:05.684Z,100005.42
2023-02-21T17:34:36.368Z,100004.95
2023-02-21T17:37:07.164Z,100009.24
2023-02-21T17:39:37.295Z,100015.03
2023-02-21T17:42:07.102Z,100010.22
2023-02-21T17:44:37.836Z,100016.70
2023-02-21T17:47:08.841Z,100015.28
2023-02-21T17:49:38.607Z,100018.77
2023-02-21T17:52:08.210Z,100019.63
2023-02-21T17:54:37.984Z,100022.32
2023-02-21T17:57:08.858Z,100028.20
2023-02-21T17:59:39.486Z,100026.73
2023-02-21T18:02:09.059Z,100035.97
2023-02-21T18:04:39.331Z,100035.12
2023-02-21T18:07:11.787Z,100036.75
2023-02-21T18:09:40.944Z,100038.23
2023-02-21T18:12:10.524Z,100038.07
2023-02-21T18:14:40.322Z,100037.22
2023-02-21T18:17:09.879Z,100037.08
2023-02-21T18:19:39.637Z,100046.34
2023-02-21T18:22:09.734Z,100049.58
2023-02-21T18:24:40.881Z,100047.52
2023-02-21T18:27:13.575Z,100043.56
2023-02-21T18:29:43.715Z,100056.37
2023-02-21T18:32:13.322Z,100051.81
2023-02-21T18:34:44.252Z,100060.59
2023-02-21T18:37:13.019Z,100052.42
2023-02-21T18:39:42.688Z,100052.77
2023-02-21T18:42:12.686Z,100046.77
2023-02-21T18:44:42.490Z,100046.77
2023-02-21T18:47:13.985Z,100051.18
2023-02-21T18:49:43.917Z,100050.13
2023-02-21T18:52:14.258Z,100048.73
2023-02-21T18:54:49.744Z,100058.36
2023-02-21T18:57:21.271Z,100062.29
2023-02-21T18:59:51.143Z,100060.72
2023-02-21T19:02:20.830Z,100070.45
2023-02-21T19:04:50.616Z,100071.34
2023-02-21T19:07:20.367Z,100070.75
2023-02-21T19:09:54.514Z,100070.75
2023-02-21T19:12:24.360Z,100083.08
2023-02-21T19:14:54.129Z,100086.65
2023-02-21T19:17:24.080Z,100084.19
2023-02-21T19:19:53.958Z,100086.08
2023-02-21T19:22:23.476Z,100088.23
2023-02-21T19:24:53.315Z,100090.06
2023-02-21T19:27:22.820Z,100088.66
2023-02-21T19:29:53.448Z,100093.08
2023-02-21T19:32:23.566Z,100100.45
2023-02-21T19:34:53.419Z,100100.09
2023-02-21T19:37:24.090Z,100105.72
2023-02-21T19:39:53.888Z,100107.20
2023-02-21T19:42:23.540Z,100110.08
2023-02-21T19:44:53.361Z,100112.83
2023-02-21T19:47:23.182Z,100105.55
2023-02-21T19:49:53.295Z,100106.20
2023-02-21T19:52:22.939Z,100111.37
2023-02-21T19:54:52.755Z,100110.99
2023-02-21T19:57:22.466Z,100113.86
2023-02-21T19:59:52.293Z,100114.89
2023-02-21T20:02:21.851Z,100119.04
2023-02-21T20:04:51.728Z,100124.11
2023-02-21T20:07:21.211Z,100126.55
2023-02-21T20:09:51.400Z,100123.97
2023-02-21T20:12:22.876Z,100123.92
2023-02-21T20:14:53.930Z,100123.92
2023-02-21T20:17:23.769Z,100128.41
2023-02-21T20:19:53.165Z,100129.89
2023-02-21T20:22:23.165Z,100123.31
2023-02-21T20:24:52.990Z,100133.15
2023-02-21T20:27:22.597Z,100134.42
2023-02-21T20:29:52.529Z,100134.42
2023-02-21T20:32:22.346Z,100143.76
2023-02-21T20:34:53.768Z,100140.47
2023-02-21T20:37:24.418Z,100146.48
2023-02-21T20:39:54.217Z,100149.05
2023-02-21T20:42:25.116Z,100151.66
2023-02-21T20:44:55.140Z,100159.37
2023-02-21T20:47:25.110Z,100159.16
2023-02-21T20:49:54.888Z,100153.69
2023-02-21T20:52:24.425Z,100154.66
2023-02-21T20:54:54.312Z,100158.89
2023-02-21T20:57:24.308Z,100157.02
2023-02-21T20:59:55.684Z,100160.41
2023-02-21T21:02:25.228Z,100160.41
2023-02-21T21:04:55.054Z,100158.80
2023-02-21T21:07:25.173Z,100162.95
2023-02-21T21:09:55.076Z,100154.95
2023-02-21T21:12:25.209Z,100157.48
2023-02-21T21:14:55.331Z,100162.95
2023-02-21T21:17:25.164Z,100162.19
2023-02-21T21:19:55.104Z,100167.27
2023-02-21T21:22:28.714Z,100167.27
2023-02-21T21:24:58.548Z,100167.45
2023-02-21T21:27:28.363Z,100166.41
2023-02-21T21:29:58.595Z,100172.72
2023-02-21T21:32:28.808Z,100173.27
2023-02-21T21:34:59.246Z,100167.06
2023-02-21T21:37:30.358Z,100171.66
2023-02-21T21:40:01.869Z,100175.11
2023-02-21T21:42:31.721Z,100151.27
2023-02-21T21:45:01.510Z,100179.27
2023-02-21T21:47:32.349Z,100181.16
2023-02-21T21:50:03.586Z,100178.72
2023-02-21T21:52:32.845Z,100184.05
2023-02-21T21:55:02.391Z,100178.78
2023-02-21T21:57:32.953Z,100186.21
2023-02-21T22:00:02.446Z,100176.06
2023-02-21T22:02:33.960Z,100178.11
2023-02-21T22:05:03.736Z,100183.37
2023-02-21T22:07:33.592Z,100182.26
2023-02-21T22:10:03.367Z,100177.40
2023-02-21T22:12:33.469Z,100181.05
2023-02-21T22:15:03.242Z,100181.05
2023-02-21T22:17:33.104Z,100180.27
2023-02-21T22:20:04.527Z,100180.27
2023-02-21T22:22:34.336Z,100187.73
2023-02-21T22:25:04.567Z,100192.62
2023-02-21T22:27:36.076Z,100193.88
2023-02-21T22:30:09.216Z,100192.83
2023-02-21T22:32:43.780Z,100201.78
2023-02-21T22:35:22.295Z,100198.19
2023-02-21T22:37:55.369Z,100198.05
2023-02-21T22:40:37.215Z,100203.39
2023-02-21T22:43:09.124Z,100208.30
2023-02-21T22:45:39.808Z,100201.73
2023-02-21T22:48:10.231Z,100204.88
2023-02-21T22:50:40.164Z,100206.81
2023-02-21T22:53:13.187Z,100197.17
2023-02-21T22:55:43.944Z,100197.17
2023-02-21T22:58:13.940Z,100191.48
2023-02-21T23:00:43.725Z,100191.48
2023-02-21T23:03:13.901Z,100211.54
2023-02-21T23:05:45.944Z,100211.28
2023-02-21T23:08:18.167Z,100215.87
2023-02-21T23:10:48.886Z,100214.63
2023-02-21T23:13:21.851Z,100214.63
2023-02-21T23:15:55.448Z,100222.34
2023-02-21T23:18:26.029Z,100216.36
2023-02-21T23:20:58.586Z,100216.34
2023-02-21T23:23:29.742Z,100215.77
2023-02-21T23:26:00.568Z,100222.41
2023-02-21T23:28:31.468Z,100222.25
2023-02-21T23:31:01.352Z,100216.87
2023-02-21T23:33:33.890Z,100223.40
2023-02-21T23:36:04.897Z,100226.28
2023-02-21T23:38:41.176Z,100228.60
2023-02-21T23:41:11.075Z,100234.05
2023-02-21T23:43:41.668Z,100232.24
2023-02-21T23:46:12.669Z,100231.63
2023-02-21T23:48:42.534Z,100232.75
2023-02-21T23:51:13.965Z,100228.78
2023-02-21T23:53:43.965Z,100234.17
2023-02-21T23:56:14.931Z,100235.53
2023-02-21T23:58:49.041Z,100226.66
